Time;durP1;ratioP1;P1;durP2;ratioP2;P2;SDS_P1;SDS_P2;PMS_P1;PMS_P2;Temp;Humidity;BMP_temperature;BMP_pressure;BME280_temperature;BME280_humidity;BME280_pressure;Samples;Min_cycle;Max_cycle;Signal;HPM_P1;HPM_P2
2020/12/19 00:00:46;;;;;;;6.80;3.33;;;20.20;28.20;;;;;;5076605;28;20163;-59
2020/12/19 00:03:12;;;;;;;2.83;2.60;;;20.20;28.80;;;;;;5076229;28;20173;-59
2020/12/19 00:05:38;;;;;;;2.95;2.70;;;20.20;28.20;;;;;;5076322;28;20231;-59
2020/12/19 00:08:04;;;;;;;3.27;2.97;;;20.20;28.20;;;;;;5076038;28;20158;-59
2020/12/19 00:10:30;;;;;;;3.03;2.83;;;20.20;28.20;;;;;;5075375;28;20182;-58
2020/12/19 00:13:00;;;;;;;3.60;3.30;;;20.20;28.20;;;;;;5076193;28;20220;-59
2020/12/19 00:15:26;;;;;;;3.55;3.25;;;20.20;28.20;;;;;;5076011;28;20155;-59
2020/12/19 00:17:52;;;;;;;2.80;2.60;;;20.20;28.20;;;;;;5074525;28;20154;-59
2020/12/19 00:20:18;;;;;;;4.43;3.53;;;20.20;28.20;;;;;;5076066;28;20197;-59
2020/12/19 00:22:44;;;;;;;3.03;2.83;;;20.20;28.20;;;;;;5075614;28;20245;-59
2020/12/19 00:25:10;;;;;;;2.78;2.58;;;20.10;28.10;;;;;;5074945;28;20189;-59
2020/12/19 00:27:36;;;;;;;3.23;2.93;;;20.10;28.10;;;;;;5075965;28;20155;-59
2020/12/19 00:30:02;;;;;;;2.90;2.70;;;20.20;28.20;;;;;;5075833;28;20401;-60
2020/12/19 00:32:28;;;;;;;3.58;3.28;;;20.20;28.20;;;;;;5075851;28;20163;-59
2020/12/19 00:34:57;;;;;;;3.20;2.80;;;20.10;28.10;;;;;;5074748;28;20161;-59
2020/12/19 00:37:25;;;;;;;2.88;2.63;;;20.10;28.10;;;;;;5075115;28;20200;-59
2020/12/19 00:39:52;;;;;;;3.35;3.08;;;20.10;28.10;;;;;;5076290;28;20155;-60
2020/12/19 00:42:18;;;;;;;2.78;2.58;;;20.10;28.10;;;;;;5075685;28;20270;-60
2020/12/19 00:44:43;;;;;;;4.53;3.70;;;20.10;28.10;;;;;;5075491;28;20273;-60
2020/12/19 00:47:09;;;;;;;3.40;3.07;;;20.10;28.10;;;;;;5074298;28;20165;-60
2020/12/19 00:49:35;;;;;;;3.67;3.37;;;20.10;28.10;;;;;;5075831;28;20521;-60
2020/12/19 00:52:01;;;;;;;3.40;2.87;;;20.10;28.10;;;;;;5075064;28;20150;-59
2020/12/19 00:54:26;;;;;;;2.90;2.70;;;20.10;28.10;;;;;;5074662;28;20162;-60
2020/12/19 00:56:55;;;;;;;2.40;2.20;;;20.10;28.10;;;;;;5075364;28;20237;-60
2020/12/19 00:59:21;;;;;;;3.15;2.85;;;20.10;28.20;;;;;;5075400;28;20159;-59
2020/12/19 01:01:46;;;;;;;4.20;3.23;;;20.10;28.10;;;;;;5074059;28;20162;-59
2020/12/19 01:04:12;;;;;;;2.70;2.50;;;20.10;28.10;;;;;;5075100;28;20629;-59
2020/12/19 01:06:38;;;;;;;3.53;2.90;;;20.10;28.20;;;;;;5073910;28;20169;-59
2020/12/19 01:09:05;;;;;;;3.17;2.87;;;20.10;28.10;;;;;;5074659;28;20154;-60
2020/12/19 01:11:31;;;;;;;2.58;2.13;;;20.10;28.10;;;;;;5074925;28;20671;-58
2020/12/19 01:13:58;;;;;;;3.28;2.97;;;20.10;28.20;;;;;;5075116;28;20162;-59
2020/12/19 01:16:26;;;;;;;2.92;2.60;;;20.10;28.10;;;;;;5074878;28;20159;-59
2020/12/19 01:18:54;;;;;;;3.35;3.05;;;20.10;28.20;;;;;;5073525;28;20158;-59
2020/12/19 01:21:26;;;;;;;3.10;2.90;;;20.10;28.10;;;;;;5075043;28;20235;-59
2020/12/19 01:23:52;;;;;;;3.17;2.88;;;20.10;28.20;;;;;;5074512;28;20284;-59
2020/12/19 01:26:18;;;;;;;3.03;2.58;;;20.10;28.10;;;;;;5074839;28;20384;-59
2020/12/19 01:28:44;;;;;;;2.85;2.55;;;20.10;28.20;;;;;;5073894;28;20197;-59
2020/12/19 01:31:12;;;;;;;3.10;2.90;;;20.10;28.20;;;;;;5073566;28;20162;-59
2020/12/19 01:33:38;;;;;;;2.92;2.72;;;20.10;28.10;;;;;;5074435;28;20159;-59
2020/12/19 01:36:09;;;;;;;2.70;2.50;;;20.10;28.10;;;;;;5073444;28;20223;-59
2020/12/19 01:38:34;;;;;;;4.35;2.75;;;20.10;28.10;;;;;;5074073;28;20171;-58
2020/12/19 01:41:00;;;;;;;2.83;2.40;;;20.10;28.10;;;;;;5074635;28;20245;-58
2020/12/19 01:43:26;;;;;;;2.70;2.50;;;20.10;28.10;;;;;;5074407;28;20158;-58
2020/12/19 01:45:54;;;;;;;3.30;3.00;;;20.10;28.20;;;;;;5074171;28;20252;-59
2020/12/19 01:48:23;;;;;;;2.60;2.40;;;20.10;28.20;;;;;;5074279;28;20212;-59
2020/12/19 01:50:51;;;;;;;3.20;2.90;;;20.10;28.20;;;;;;5074329;28;20154;-59
2020/12/19 01:53:18;;;;;;;2.90;2.60;;;20.10;28.10;;;;;;5073883;28;20177;-57
2020/12/19 01:55:44;;;;;;;2.80;2.60;;;20.00;28.10;;;;;;5074190;28;20159;-59
2020/12/19 01:58:10;;;;;;;2.42;2.20;;;20.00;28.10;;;;;;5074089;28;20612;-59
2020/12/19 02:00:40;;;;;;;2.60;2.40;;;20.00;28.10;;;;;;5074386;28;20158;-60
2020/12/19 02:03:08;;;;;;;2.83;2.63;;;20.00;28.10;;;;;;5074115;28;20151;-59
2020/12/19 02:05:40;;;;;;;2.88;2.67;;;20.00;28.10;;;;;;5074138;28;20186;-59
2020/12/19 02:08:06;;;;;;;2.80;2.58;;;20.10;28.10;;;;;;5073728;28;20154;-59
2020/12/19 02:10:32;;;;;;;2.90;2.70;;;20.00;28.10;;;;;;5073891;28;20174;-59
2020/12/19 02:13:05;;;;;;;2.67;2.33;;;20.10;28.10;;;;;;5074098;28;20544;-60
2020/12/19 02:15:40;;;;;;;3.17;2.90;;;20.00;28.10;;;;;;5074060;28;20246;-59
2020/12/19 02:18:06;;;;;;;3.40;3.03;;;20.00;28.10;;;;;;5073861;28;20165;-59
2020/12/19 02:20:34;;;;;;;3.13;2.93;;;20.00;28.10;;;;;;5072542;28;20170;-60
2020/12/19 02:23:02;;;;;;;3.00;2.80;;;20.00;28.10;;;;;;5073471;28;20161;-59
2020/12/19 02:25:35;;;;;;;2.75;2.53;;;20.00;28.10;;;;;;5073566;28;20192;-60
2020/12/19 02:28:04;;;;;;;2.30;2.10;;;20.00;28.10;;;;;;5073768;28;20200;-60
2020/12/19 02:30:29;;;;;;;2.60;2.40;;;20.00;28.10;;;;;;5072730;28;20524;-59
2020/12/19 02:32:56;;;;;;;3.40;3.10;;;20.00;28.10;;;;;;5073873;28;20242;-59
2020/12/19 02:35:21;;;;;;;2.75;2.55;;;20.00;28.10;;;;;;5072571;28;20159;-59
2020/12/19 02:37:47;;;;;;;3.00;2.80;;;20.00;28.10;;;;;;5073109;28;20177;-59
2020/12/19 02:40:13;;;;;;;3.67;3.30;;;20.00;28.10;;;;;;5073468;28;20951;-58
2020/12/19 02:42:39;;;;;;;2.60;2.40;;;20.00;28.10;;;;;;5073641;28;20570;-59
2020/12/19 02:45:04;;;;;;;2.70;2.50;;;20.00;28.10;;;;;;5073764;28;20648;-59
2020/12/19 02:47:30;;;;;;;3.50;3.20;;;20.00;28.10;;;;;;5073578;28;20181;-60
2020/12/19 02:49:56;;;;;;;2.67;2.30;;;20.00;28.10;;;;;;5073653;28;20170;-60
2020/12/19 02:52:24;;;;;;;3.80;2.90;;;20.00;28.10;;;;;;5071795;28;20151;-59
2020/12/19 02:54:49;;;;;;;3.17;2.85;;;20.00;28.10;;;;;;5073666;28;20216;-58
2020/12/19 02:57:15;;;;;;;3.90;2.87;;;20.00;28.10;;;;;;5073412;28;20249;-59
2020/12/19 02:59:41;;;;;;;2.50;2.30;;;20.00;28.10;;;;;;5073558;28;20166;-59
2020/12/19 03:02:06;;;;;;;2.73;2.50;;;20.00;28.10;;;;;;5073572;28;20163;-58
2020/12/19 03:04:32;;;;;;;2.27;2.07;;;20.00;28.10;;;;;;5073508;28;20193;-59
2020/12/19 03:06:57;;;;;;;2.90;2.70;;;20.00;28.10;;;;;;5073000;28;20167;-59
2020/12/19 03:09:24;;;;;;;2.73;2.53;;;19.10;27.40;;;;;;5072067;28;20536;-59
2020/12/19 03:11:50;;;;;;;2.53;2.33;;;20.00;28.10;;;;;;5073495;28;20155;-59
2020/12/19 03:14:16;;;;;;;2.90;2.50;;;20.00;28.10;;;;;;5073341;28;20265;-59
2020/12/19 03:16:42;;;;;;;1.98;1.88;;;20.00;28.10;;;;;;5073311;28;20376;-59
2020/12/19 03:19:07;;;;;;;2.90;2.60;;;20.00;28.10;;;;;;5073213;28;20163;-59
2020/12/19 03:21:33;;;;;;;3.10;2.80;;;20.00;28.10;;;;;;5073402;28;20170;-58
2020/12/19 03:23:58;;;;;;;2.90;2.70;;;20.00;28.10;;;;;;5072578;28;20163;-59
2020/12/19 03:26:24;;;;;;;2.53;2.33;;;20.00;28.10;;;;;;5073296;28;20194;-59
2020/12/19 03:28:50;;;;;;;2.63;2.43;;;20.00;28.10;;;;;;5073328;28;20158;-59
2020/12/19 03:31:15;;;;;;;2.87;2.67;;;20.00;28.10;;;;;;5071870;28;20272;-59
2020/12/19 03:33:41;;;;;;;3.07;2.83;;;19.90;28.00;;;;;;5073125;28;20147;-59
2020/12/19 03:36:06;;;;;;;4.00;3.37;;;20.00;28.10;;;;;;5073049;28;20166;-60
2020/12/19 03:38:32;;;;;;;2.43;2.23;;;20.00;28.10;;;;;;5072393;28;20185;-59
2020/12/19 03:40:58;;;;;;;3.00;2.80;;;19.90;28.00;;;;;;5073228;28;20237;-58
2020/12/19 03:43:24;;;;;;;2.53;2.33;;;19.90;28.00;;;;;;5073100;28;20161;-59
2020/12/19 03:45:49;;;;;;;3.20;2.90;;;20.00;28.10;;;;;;5071523;28;20218;-59
2020/12/19 03:48:15;;;;;;;3.20;2.90;;;19.90;28.00;;;;;;5073039;28;20254;-59
2020/12/19 03:50:41;;;;;;;2.03;1.93;;;20.00;28.10;;;;;;5073222;28;20624;-58
2020/12/19 03:53:07;;;;;;;2.60;2.40;;;19.90;28.00;;;;;;5074739;28;20174;-60
2020/12/19 03:55:33;;;;;;;2.60;2.40;;;19.90;28.00;;;;;;5075462;28;20655;-59
2020/12/19 03:57:59;;;;;;;2.78;2.55;;;19.90;28.00;;;;;;5076550;28;20613;-59
2020/12/19 04:00:25;;;;;;;2.75;2.55;;;19.90;28.00;;;;;;5076579;28;20249;-58
2020/12/19 04:02:50;;;;;;;3.33;3.03;;;19.90;28.00;;;;;;5076370;28;20209;-59
2020/12/19 04:05:16;;;;;;;2.90;2.70;;;19.90;28.00;;;;;;5076328;28;20537;-59
2020/12/19 04:07:42;;;;;;;3.33;2.67;;;19.90;28.00;;;;;;5075559;28;20159;-59
2020/12/19 04:10:09;;;;;;;2.35;2.25;;;20.00;28.10;;;;;;5076310;28;20628;-60
2020/12/19 04:12:35;;;;;;;3.05;2.10;;;19.90;28.00;;;;;;5074945;28;20621;-59
2020/12/19 04:15:01;;;;;;;3.05;2.85;;;19.90;28.00;;;;;;5076174;28;20609;-59
2020/12/19 04:17:27;;;;;;;2.95;2.75;;;19.90;28.00;;;;;;5076131;28;20158;-59
2020/12/19 04:19:53;;;;;;;2.30;2.10;;;19.90;28.00;;;;;;5076271;28;20238;-59
2020/12/19 04:22:18;;;;;;;3.40;2.53;;;19.90;28.00;;;;;;5075445;28;20161;-59
2020/12/19 04:24:44;;;;;;;2.77;2.47;;;19.90;28.00;;;;;;5076129;28;20190;-59
2020/12/19 04:27:10;;;;;;;2.60;2.40;;;19.90;28.00;;;;;;5075755;28;20518;-60
2020/12/19 04:29:35;;;;;;;2.50;2.30;;;19.90;28.00;;;;;;5076029;28;20228;-59
2020/12/19 04:32:01;;;;;;;2.20;2.00;;;19.90;28.00;;;;;;5076159;28;20189;-59
2020/12/19 04:34:27;;;;;;;3.17;2.90;;;19.90;28.00;;;;;;5075790;28;20155;-59
2020/12/19 04:36:52;;;;;;;2.90;2.70;;;19.90;28.00;;;;;;5075432;28;20154;-59
2020/12/19 04:39:19;;;;;;;2.70;2.50;;;19.90;28.00;;;;;;5075787;28;20652;-59
2020/12/19 04:41:45;;;;;;;2.72;2.53;;;19.90;28.00;;;;;;5075949;28;20178;-59
2020/12/19 04:44:11;;;;;;;2.55;2.35;;;19.90;28.00;;;;;;5075716;28;20147;-60
2020/12/19 04:46:43;;;;;;;2.50;2.30;;;19.90;28.00;;;;;;5075599;28;20551;-59
2020/12/19 04:49:09;;;;;;;2.45;2.28;;;19.90;28.00;;;;;;5075234;28;20172;-60
2020/12/19 04:51:35;;;;;;;2.55;2.35;;;19.90;28.00;;;;;;5075710;28;20159;-59
2020/12/19 04:54:03;;;;;;;2.50;2.30;;;19.90;28.00;;;;;;5075057;28;20196;-59
2020/12/19 04:56:29;;;;;;;2.90;2.70;;;19.90;28.00;;;;;;5075543;28;20216;-59
2020/12/19 04:58:57;;;;;;;2.55;2.45;;;19.90;28.00;;;;;;5075500;28;20602;-59
2020/12/19 05:01:23;;;;;;;2.20;2.10;;;19.90;28.00;;;;;;5075222;28;20189;-59
2020/12/19 05:03:50;;;;;;;3.97;2.50;;;19.90;28.00;;;;;;5075050;28;20162;-59
2020/12/19 05:06:17;;;;;;;2.78;2.20;;;19.90;28.00;;;;;;5075314;28;20185;-59
2020/12/19 05:08:43;;;;;;;2.70;2.50;;;19.90;28.00;;;;;;5074760;28;20150;-59
2020/12/19 05:11:11;;;;;;;2.60;2.40;;;19.90;28.00;;;;;;5073793;28;20166;-59
2020/12/19 05:13:38;;;;;;;2.47;2.28;;;19.90;28.00;;;;;;5074018;28;20375;-59
2020/12/19 05:16:04;;;;;;;2.30;2.10;;;19.90;28.00;;;;;;5075416;28;20158;-59
2020/12/19 05:18:30;;;;;;;1.90;1.80;;;19.90;28.00;;;;;;5074793;28;20203;-59
2020/12/19 05:20:56;;;;;;;2.60;2.40;;;19.90;28.00;;;;;;5075325;28;20602;-59
2020/12/19 05:23:21;;;;;;;2.78;2.35;;;19.90;28.00;;;;;;5074521;28;20163;-59
2020/12/19 05:25:49;;;;;;;3.20;2.53;;;19.90;28.00;;;;;;5074944;28;20190;-59
2020/12/19 05:28:15;;;;;;;2.95;2.65;;;19.90;28.00;;;;;;5075029;28;20198;-60
2020/12/19 05:30:41;;;;;;;2.75;2.55;;;19.90;28.00;;;;;;5073433;28;20564;-60
2020/12/19 05:33:10;;;;;;;2.80;2.60;;;19.90;28.00;;;;;;5073299;28;20154;-60
2020/12/19 05:35:37;;;;;;;2.55;2.20;;;19.90;28.60;;;;;;5074781;28;20150;-59
2020/12/19 05:38:05;;;;;;;2.20;1.95;;;19.90;28.60;;;;;;5074071;28;20261;-59
2020/12/19 05:40:33;;;;;;;2.60;2.40;;;19.90;28.00;;;;;;5074582;28;20161;-60
2020/12/19 05:42:59;;;;;;;2.42;2.28;;;19.80;28.00;;;;;;5073424;28;20265;-59
2020/12/19 05:45:27;;;;;;;2.25;2.03;;;19.80;27.90;;;;;;5074383;28;20603;-60
2020/12/19 05:47:53;;;;;;;2.45;2.25;;;19.90;28.60;;;;;;5074567;28;20162;-59
2020/12/19 05:50:21;;;;;;;2.43;2.23;;;19.80;27.90;;;;;;5074697;28;20170;-59
2020/12/19 05:52:47;;;;;;;2.40;2.20;;;19.80;27.90;;;;;;5073993;28;20617;-59
2020/12/19 05:55:15;;;;;;;2.60;2.40;;;19.80;27.90;;;;;;5074254;28;20150;-59
2020/12/19 05:57:41;;;;;;;2.90;2.70;;;19.80;27.90;;;;;;5074199;28;20440;-58
2020/12/19 06:00:09;;;;;;;2.65;2.40;;;19.80;27.90;;;;;;5074178;28;20178;-59
2020/12/19 06:02:36;;;;;;;2.65;2.45;;;19.80;27.90;;;;;;5074286;28;20200;-60
2020/12/19 06:05:11;;;;;;;2.30;2.20;;;19.80;27.90;;;;;;5074063;28;20190;-59
2020/12/19 06:07:40;;;;;;;2.17;2.08;;;19.80;28.00;;;;;;5073602;28;20589;-59
2020/12/19 06:10:08;;;;;;;2.85;2.55;;;19.90;28.00;;;;;;5074049;28;20154;-59
2020/12/19 06:12:45;;;;;;;2.17;1.98;;;19.80;27.90;;;;;;5074157;28;20161;-59
2020/12/19 06:15:26;;;;;;;2.20;2.00;;;19.80;27.90;;;;;;5073544;28;20165;-59
2020/12/19 06:17:57;;;;;;;2.70;2.15;;;19.80;28.00;;;;;;5073674;28;20186;-59
2020/12/19 06:20:29;;;;;;;2.30;2.08;;;19.80;28.00;;;;;;5073821;28;20192;-59
2020/12/19 06:22:55;;;;;;;2.80;2.50;;;19.80;27.90;;;;;;5073411;28;20166;-59
2020/12/19 06:25:53;;;;;;;2.55;2.30;;;19.80;28.00;;;;;;5073703;28;20190;-59
2020/12/19 06:28:46;;;;;;;2.83;2.22;;;19.80;28.50;;;;;;5061854;28;20183;-59
2020/12/19 06:31:20;;;;;;;2.40;2.20;;;19.80;27.90;;;;;;5065591;28;20178;-59
2020/12/19 06:33:48;;;;;;;2.60;2.40;;;19.80;28.00;;;;;;5072385;28;20192;-59
2020/12/19 06:36:27;;;;;;;2.40;2.17;;;19.80;27.90;;;;;;5073834;28;20633;-60
2020/12/19 06:38:56;;;;;;;2.50;2.30;;;19.80;28.00;;;;;;5073499;28;20189;-60
2020/12/19 06:41:41;;;;;;;3.20;2.50;;;19.80;27.90;;;;;;5073625;28;20257;-60
2020/12/19 06:44:10;;;;;;;2.35;2.15;;;19.80;27.90;;;;;;5073571;28;20182;-60
2020/12/19 06:46:36;;;;;;;2.70;2.50;;;19.80;27.90;;;;;;5073392;28;20206;-60
2020/12/19 06:49:24;;;;;;;2.53;2.33;;;19.80;27.90;;;;;;5073608;28;20169;-59
2020/12/19 06:51:59;;;;;;;3.03;2.58;;;19.80;28.00;;;;;;5073517;28;20166;-60
2020/12/19 06:54:29;;;;;;;2.90;2.10;;;19.80;27.90;;;;;;5073530;28;20158;-60
2020/12/19 06:56:55;;;;;;;2.10;2.00;;;19.80;27.90;;;;;;5073347;28;20291;-58
2020/12/19 06:59:25;;;;;;;2.40;2.20;;;19.80;28.00;;;;;;5073443;28;20606;-59
2020/12/19 07:01:51;;;;;;;2.30;2.10;;;19.70;27.90;;;;;;5073549;28;20241;-59
2020/12/19 07:04:47;;;;;;;2.57;2.30;;;19.70;27.90;;;;;;5072176;28;21003;-59
2020/12/19 07:07:14;;;;;;;2.78;2.58;;;19.70;27.90;;;;;;5067833;28;20411;-59
2020/12/19 07:09:41;;;;;;;2.80;2.60;;;19.80;27.90;;;;;;5073598;28;20147;-60
2020/12/19 07:12:34;;;;;;;2.88;2.20;;;19.70;27.90;;;;;;5073248;28;20154;-60
2020/12/19 07:15:00;;;;;;;2.88;2.67;;;19.70;27.90;;;;;;5073421;28;20543;-60
2020/12/19 07:17:26;;;;;;;2.05;1.85;;;19.80;27.90;;;;;;5073339;28;20181;-60
2020/12/19 07:20:00;;;;;;;2.40;2.20;;;19.70;27.90;;;;;;5072425;28;20555;-61
2020/12/19 07:22:27;;;;;;;2.03;1.90;;;19.70;27.90;;;;;;5072726;28;20486;-60
2020/12/19 07:24:54;;;;;;;2.00;1.90;;;19.70;27.90;;;;;;5073469;28;20202;-60
2020/12/19 07:27:21;;;;;;;2.25;2.05;;;19.70;27.90;;;;;;5074379;28;20237;-59
2020/12/19 07:29:47;;;;;;;2.33;2.13;;;19.70;27.90;;;;;;5076990;28;20265;-60
2020/12/19 07:32:13;;;;;;;2.40;2.20;;;19.70;27.90;;;;;;5077051;28;20625;-59
2020/12/19 07:34:39;;;;;;;3.63;2.63;;;19.70;27.90;;;;;;5077090;28;20440;-60
2020/12/19 07:37:05;;;;;;;2.93;2.70;;;19.70;27.90;;;;;;5076300;28;20730;-60
2020/12/19 07:39:31;;;;;;;1.90;1.80;;;19.70;27.90;;;;;;5077002;28;20154;-60
2020/12/19 07:42:02;;;;;;;2.00;1.90;;;19.70;27.90;;;;;;5076519;28;20171;-59
2020/12/19 07:44:29;;;;;;;2.35;2.15;;;19.70;27.90;;;;;;5076484;28;20150;-60
2020/12/19 07:46:59;;;;;;;2.00;1.80;;;19.70;27.90;;;;;;5076590;28;20146;-60
2020/12/19 07:49:36;;;;;;;2.40;2.20;;;19.70;27.90;;;;;;5076871;28;20182;-59
2020/12/19 07:52:13;;;;;;;3.15;2.85;;;19.70;27.90;;;;;;5076063;28;20233;-60
2020/12/19 07:54:41;;;;;;;2.13;1.92;;;19.70;27.90;;;;;;5075324;28;20174;-60
2020/12/19 07:57:07;;;;;;;2.67;2.47;;;19.70;27.90;;;;;;5075212;28;20178;-59
2020/12/19 07:59:35;;;;;;;2.70;2.50;;;19.70;27.90;;;;;;5076356;28;20181;-59
2020/12/19 08:02:06;;;;;;;2.17;2.08;;;19.70;27.90;;;;;;5075471;28;20193;-59
2020/12/19 08:04:32;;;;;;;2.17;2.08;;;19.70;27.90;;;;;;5076347;28;20159;-59
2020/12/19 08:06:59;;;;;;;2.53;2.10;;;19.70;27.90;;;;;;5076194;28;20658;-59
2020/12/19 08:09:25;;;;;;;2.22;2.10;;;19.70;27.90;;;;;;5076282;28;20379;-59
2020/12/19 08:11:52;;;;;;;2.58;2.38;;;19.70;27.90;;;;;;5076133;28;20150;-59
2020/12/19 08:14:19;;;;;;;2.42;2.25;;;19.70;27.90;;;;;;5076404;28;20181;-59
2020/12/19 08:16:45;;;;;;;2.55;2.35;;;19.70;28.40;;;;;;5076133;28;20201;-59
2020/12/19 08:19:17;;;;;;;2.60;2.40;;;19.70;27.90;;;;;;5076229;28;20265;-59
2020/12/19 08:21:47;;;;;;;2.58;2.38;;;19.70;27.90;;;;;;5076131;28;20166;-60
2020/12/19 08:24:12;;;;;;;2.90;2.60;;;19.70;27.90;;;;;;5075546;28;20296;-61
2020/12/19 08:26:38;;;;;;;2.07;1.87;;;19.70;27.90;;;;;;5076031;28;20613;-59
2020/12/19 08:29:06;;;;;;;3.00;1.97;;;19.70;27.90;;;;;;5076013;28;20884;-59
2020/12/19 08:31:36;;;;;;;2.40;2.15;;;19.70;27.90;;;;;;5076256;28;20220;-59
2020/12/19 08:34:11;;;;;;;3.47;2.30;;;19.70;27.90;;;;;;5076156;28;20155;-58
2020/12/19 08:36:45;;;;;;;2.10;1.92;;;19.60;27.80;;;;;;5074550;28;20170;-59
2020/12/19 08:39:18;;;;;;;2.95;1.95;;;19.70;27.90;;;;;;5075143;28;20185;-60
2020/12/19 08:41:44;;;;;;;2.30;2.10;;;19.70;27.90;;;;;;5075945;28;20158;-60
2020/12/19 08:44:28;;;;;;;2.15;1.95;;;19.70;27.90;;;;;;5074304;28;20202;-60
2020/12/19 08:47:04;;;;;;;2.63;2.42;;;19.70;27.90;;;;;;5075570;28;20634;-60
2020/12/19 08:49:31;;;;;;;3.10;2.80;;;19.70;27.90;;;;;;5075830;28;20181;-59
2020/12/19 08:51:57;;;;;;;2.35;2.15;;;19.70;27.90;;;;;;5075103;28;20614;-59
2020/12/19 08:54:28;;;;;;;4.80;2.50;;;19.70;27.90;;;;;;5075283;28;20158;-60
2020/12/19 08:56:54;;;;;;;2.13;1.88;;;19.70;27.90;;;;;;5074986;28;20204;-60
2020/12/19 08:59:27;;;;;;;2.87;2.67;;;19.70;27.90;;;;;;5075249;28;20158;-60
2020/12/19 09:01:56;;;;;;;2.25;2.15;;;19.70;27.90;;;;;;5075311;28;20178;-59
2020/12/19 09:04:23;;;;;;;2.15;2.05;;;19.70;27.90;;;;;;5075174;28;20191;-60
2020/12/19 09:06:55;;;;;;;2.63;2.40;;;19.70;27.90;;;;;;5075143;28;20162;-60
2020/12/19 09:09:30;;;;;;;2.53;2.33;;;19.70;27.90;;;;;;5075235;28;20185;-60
2020/12/19 09:12:12;;;;;;;3.10;2.80;;;19.70;27.90;;;;;;5074940;28;20178;-60
2020/12/19 09:14:37;;;;;;;2.70;2.33;;;19.70;27.90;;;;;;5075105;28;20150;-60
2020/12/19 09:17:03;;;;;;;2.47;2.27;;;19.70;27.90;;;;;;5075011;28;20159;-60
2020/12/19 09:19:29;;;;;;;2.60;2.37;;;19.70;27.90;;;;;;5074991;28;20633;-60
2020/12/19 09:22:00;;;;;;;2.27;2.07;;;19.70;27.90;;;;;;5056767;28;20170;-60
2020/12/19 09:24:25;;;;;;;4.50;2.10;;;19.70;27.90;;;;;;5074716;28;20158;-60
2020/12/19 09:26:52;;;;;;;2.83;2.40;;;19.70;27.90;;;;;;5074655;28;20627;-60
2020/12/19 09:29:18;;;;;;;2.30;2.10;;;19.70;27.90;;;;;;5074882;28;20397;-60
2020/12/19 09:31:43;;;;;;;2.70;2.50;;;19.80;28.00;;;;;;5074754;28;20501;-59
2020/12/19 09:34:09;;;;;;;2.40;2.27;;;19.80;28.00;;;;;;5074346;28;20551;-59
2020/12/19 09:36:36;;;;;;;2.20;1.83;;;19.70;27.90;;;;;;5073675;28;20166;-59
2020/12/19 09:39:03;;;;;;;3.28;2.92;;;19.70;27.90;;;;;;5073846;28;20641;-60
2020/12/19 09:41:29;;;;;;;2.70;2.45;;;19.70;27.90;;;;;;5073110;28;20170;-60
2020/12/19 09:43:55;;;;;;;2.30;2.17;;;19.80;27.90;;;;;;5074393;28;20186;-60
2020/12/19 09:46:20;;;;;;;2.63;2.43;;;19.80;28.00;;;;;;5074063;28;20573;-59
2020/12/19 09:48:46;;;;;;;2.73;2.50;;;19.70;27.90;;;;;;5074681;28;20155;-59
2020/12/19 09:51:12;;;;;;;2.53;2.33;;;19.70;27.90;;;;;;5073689;28;20158;-59
2020/12/19 09:53:37;;;;;;;2.53;2.33;;;19.70;27.90;;;;;;5073497;28;20162;-60
2020/12/19 09:56:04;;;;;;;1.90;1.80;;;19.70;27.90;;;;;;5074607;28;20216;-59
2020/12/19 09:58:30;;;;;;;4.32;2.45;;;19.80;28.00;;;;;;5074577;28;20169;-58
2020/12/19 10:00:56;;;;;;;2.70;2.50;;;19.80;28.50;;;;;;5074060;28;20233;-59
2020/12/19 10:03:21;;;;;;;2.75;2.15;;;19.80;27.90;;;;;;5073867;28;20466;-59
2020/12/19 10:05:47;;;;;;;2.30;2.10;;;19.80;27.90;;;;;;5073985;28;20590;-59
2020/12/19 10:08:14;;;;;;;3.07;2.77;;;19.80;27.90;;;;;;5073286;28;20161;-59
2020/12/19 10:10:43;;;;;;;3.72;2.70;;;19.80;27.90;;;;;;5073229;28;20197;-59
2020/12/19 10:13:10;;;;;;;2.58;2.38;;;19.80;27.90;;;;;;5073715;28;20234;-59
2020/12/19 10:15:36;;;;;;;2.63;2.42;;;19.80;27.90;;;;;;5072515;28;20169;-59
2020/12/19 10:18:01;;;;;;;2.80;2.60;;;19.80;27.80;;;;;;5073903;28;20226;-59
2020/12/19 10:20:27;;;;;;;2.33;2.13;;;19.80;27.80;;;;;;5074020;28;20213;-58
2020/12/19 10:22:56;;;;;;;3.03;2.63;;;19.80;27.80;;;;;;5073074;28;20163;-59
2020/12/19 10:25:21;;;;;;;2.58;2.38;;;19.80;27.70;;;;;;5073755;28;20320;-59
2020/12/19 10:27:47;;;;;;;3.17;2.87;;;19.80;27.70;;;;;;5073628;28;20241;-59
2020/12/19 10:30:13;;;;;;;2.63;2.23;;;19.80;27.70;;;;;;5073455;28;20161;-59
2020/12/19 10:32:38;;;;;;;2.90;2.60;;;19.80;27.60;;;;;;5072310;28;20175;-59
2020/12/19 10:35:06;;;;;;;3.03;2.73;;;19.80;27.60;;;;;;5073746;28;20637;-61
2020/12/19 10:37:35;;;;;;;2.90;2.58;;;19.80;27.70;;;;;;5073086;28;20231;-59
2020/12/19 10:40:01;;;;;;;5.50;2.95;;;19.80;27.60;;;;;;5073656;28;20163;-59
2020/12/19 10:42:26;;;;;;;4.57;3.07;;;19.80;27.60;;;;;;5072264;28;20178;-60
2020/12/19 10:44:55;;;;;;;2.80;2.60;;;19.80;27.60;;;;;;5072197;28;20947;-59
2020/12/19 10:47:21;;;;;;;2.80;2.60;;;19.80;27.60;;;;;;5073339;28;20212;-59
2020/12/19 10:49:46;;;;;;;3.90;2.90;;;19.80;27.50;;;;;;5073534;28;20540;-60
2020/12/19 10:52:12;;;;;;;3.50;2.93;;;19.80;27.50;;;;;;5072635;28;20268;-59
2020/12/19 10:54:38;;;;;;;2.90;2.70;;;19.90;27.50;;;;;;5073738;28;20618;-59
2020/12/19 10:57:03;;;;;;;2.93;2.67;;;19.80;27.50;;;;;;5073318;28;20186;-60
2020/12/19 10:59:29;;;;;;;2.60;2.40;;;19.80;27.40;;;;;;5073405;28;20167;-59
2020/12/19 11:01:56;;;;;;;3.20;2.90;;;19.80;27.40;;;;;;5075906;28;20158;-60
2020/12/19 11:04:22;;;;;;;2.70;2.45;;;19.80;27.40;;;;;;5077314;28;20505;-60
2020/12/19 11:06:48;;;;;;;2.77;2.47;;;19.80;27.40;;;;;;5077403;28;20682;-59
2020/12/19 11:09:14;;;;;;;3.03;2.70;;;19.80;27.40;;;;;;5077204;28;20383;-59
2020/12/19 11:11:40;;;;;;;2.17;1.97;;;19.90;27.40;;;;;;5077374;28;20161;-59
2020/12/19 11:14:06;;;;;;;2.40;2.20;;;19.80;27.30;;;;;;5076097;28;20174;-59
2020/12/19 11:16:33;;;;;;;3.50;2.77;;;19.90;27.40;;;;;;5077763;28;20163;-59
2020/12/19 11:18:59;;;;;;;3.33;3.13;;;19.90;27.40;;;;;;5076015;28;20545;-60
2020/12/19 11:21:24;;;;;;;2.90;2.70;;;19.90;27.40;;;;;;5077302;28;20178;-60
2020/12/19 11:23:51;;;;;;;2.57;2.37;;;19.90;27.40;;;;;;5076635;28;20454;-59
2020/12/19 11:26:21;;;;;;;2.60;2.40;;;19.90;27.30;;;;;;5076961;28;20857;-60
2020/12/19 11:28:48;;;;;;;2.63;2.42;;;19.90;27.30;;;;;;5076995;28;20662;-60
2020/12/19 11:31:15;;;;;;;2.53;2.33;;;19.90;27.30;;;;;;5076817;28;20189;-59
2020/12/19 11:33:41;;;;;;;2.63;2.38;;;19.90;27.30;;;;;;5075706;28;20198;-59
2020/12/19 11:36:07;;;;;;;2.97;2.53;;;19.90;27.20;;;;;;5075337;28;20217;-60
2020/12/19 11:38:32;;;;;;;5.90;2.73;;;19.90;27.20;;;;;;5076571;28;20270;-59
2020/12/19 11:40:58;;;;;;;2.23;2.03;;;19.90;27.20;;;;;;5077075;28;20162;-59
2020/12/19 11:43:24;;;;;;;2.60;2.40;;;19.90;27.20;;;;;;5076595;28;20626;-59
2020/12/19 11:45:49;;;;;;;2.80;2.60;;;19.90;27.20;;;;;;5075279;28;20222;-59
2020/12/19 11:48:15;;;;;;;2.77;2.57;;;19.90;27.20;;;;;;5076704;28;20159;-59
2020/12/19 11:50:41;;;;;;;3.07;2.60;;;19.90;27.10;;;;;;5076555;28;20155;-59
2020/12/19 11:53:06;;;;;;;3.50;2.53;;;19.90;27.10;;;;;;5076269;28;20594;-59
2020/12/19 11:55:32;;;;;;;3.37;3.07;;;19.90;27.10;;;;;;5076602;28;20169;-59
2020/12/19 11:57:58;;;;;;;2.67;2.47;;;20.00;27.10;;;;;;5076598;28;20910;-58
2020/12/19 12:00:26;;;;;;;3.70;3.40;;;20.00;27.10;;;;;;5076227;28;20636;-59
2020/12/19 12:02:52;;;;;;;2.53;2.33;;;20.00;27.00;;;;;;5076417;28;20222;-59
2020/12/19 12:05:18;;;;;;;2.43;2.23;;;20.00;26.90;;;;;;5075029;28;20336;-60
2020/12/19 12:07:43;;;;;;;2.90;2.43;;;20.10;26.90;;;;;;5075847;28;20208;-61
2020/12/19 12:10:09;;;;;;;2.83;2.40;;;20.10;26.80;;;;;;5076281;28;20907;-60
2020/12/19 12:12:35;;;;;;;2.70;2.30;;;20.10;26.80;;;;;;5075561;28;20540;-60
2020/12/19 12:15:00;;;;;;;2.80;2.60;;;20.20;26.80;;;;;;5074978;28;20162;-60
2020/12/19 12:17:26;;;;;;;2.73;2.53;;;20.20;26.70;;;;;;5076080;28;20159;-60
2020/12/19 12:19:51;;;;;;;3.23;2.87;;;20.20;26.70;;;;;;5076121;28;20494;-60
2020/12/19 12:22:17;;;;;;;2.70;2.50;;;20.20;26.70;;;;;;5075353;28;20166;-60
2020/12/19 12:24:43;;;;;;;2.50;2.30;;;20.20;26.70;;;;;;5074612;28;20220;-60
2020/12/19 12:27:08;;;;;;;3.00;2.70;;;20.20;26.70;;;;;;5076067;28;20167;-60
2020/12/19 12:29:34;;;;;;;3.27;2.80;;;20.20;26.70;;;;;;5075091;28;20594;-60
2020/12/19 12:32:00;;;;;;;2.23;2.03;;;20.20;26.70;;;;;;5075763;28;20154;-60
2020/12/19 12:34:25;;;;;;;2.67;2.00;;;20.20;26.70;;;;;;5075973;28;20487;-59
2020/12/19 12:36:51;;;;;;;3.03;2.73;;;20.20;26.70;;;;;;5074649;28;20166;-60
2020/12/19 12:39:17;;;;;;;2.83;2.20;;;20.20;26.70;;;;;;5075699;28;20237;-59
2020/12/19 12:41:44;;;;;;;4.33;3.43;;;20.20;26.70;;;;;;5075699;28;20162;-59
2020/12/19 12:44:10;;;;;;;2.70;2.50;;;20.20;26.70;;;;;;5074507;28;20196;-60
2020/12/19 12:46:35;;;;;;;2.77;2.57;;;20.20;26.70;;;;;;5074201;28;20309;-59
2020/12/19 12:49:01;;;;;;;2.43;2.23;;;20.20;26.70;;;;;;5074209;28;20170;-59